sensor_id;sensor_type;location;lat;lon;timestamp;P1;durP1;ratioP1;P2;durP2;ratioP2
46613;SDS011;32338;50.430;6.806;2023-08-07T00:01:00;11.15;;;2.50;;
46613;SDS011;32338;50.430;6.806;2023-08-07T00:03:27;11.60;;;2.38;;
46613;SDS011;32338;50.430;6.806;2023-08-07T00:05:54;13.00;;;2.38;;
46613;SDS011;32338;50.430;6.806;2023-08-07T00:08:22;11.20;;;2.00;;
46613;SDS011;32338;50.430;6.806;2023-08-07T00:10:49;13.70;;;1.95;;
46613;SDS011;32338;50.430;6.806;2023-08-07T00:13:15;15.00;;;2.42;;
46613;SDS011;32338;50.430;6.806;2023-08-07T00:15:42;6.15;;;2.05;;
46613;SDS011;32338;50.430;6.806;2023-08-07T00:18:08;9.40;;;2.22;;
46613;SDS011;32338;50.430;6.806;2023-08-07T00:20:35;9.73;;;2.00;;
46613;SDS011;32338;50.430;6.806;2023-08-07T00:23:01;13.23;;;2.50;;
46613;SDS011;32338;50.430;6.806;2023-08-07T00:25:29;10.52;;;1.90;;
46613;SDS011;32338;50.430;6.806;2023-08-07T00:27:56;11.57;;;2.00;;
46613;SDS011;32338;50.430;6.806;2023-08-07T00:30:22;6.50;;;2.03;;
46613;SDS011;32338;50.430;6.806;2023-08-07T00:32:49;12.02;;;2.30;;
46613;SDS011;32338;50.430;6.806;2023-08-07T00:35:15;16.27;;;2.58;;
46613;SDS011;32338;50.430;6.806;2023-08-07T00:37:42;9.35;;;2.50;;
46613;SDS011;32338;50.430;6.806;2023-08-07T00:40:09;14.15;;;2.75;;
46613;SDS011;32338;50.430;6.806;2023-08-07T00:42:37;8.82;;;2.20;;
46613;SDS011;32338;50.430;6.806;2023-08-07T00:45:04;4.22;;;2.25;;
46613;SDS011;32338;50.430;6.806;2023-08-07T00:47:31;8.02;;;2.88;;
46613;SDS011;32338;50.430;6.806;2023-08-07T00:49:58;14.82;;;2.85;;
46613;SDS011;32338;50.430;6.806;2023-08-07T00:52:25;10.73;;;2.20;;
46613;SDS011;32338;50.430;6.806;2023-08-07T00:54:52;6.93;;;2.78;;
46613;SDS011;32338;50.430;6.806;2023-08-07T00:57:19;11.43;;;2.72;;
46613;SDS011;32338;50.430;6.806;2023-08-07T00:59:49;12.23;;;2.67;;
46613;SDS011;32338;50.430;6.806;2023-08-07T01:02:16;10.02;;;2.30;;
46613;SDS011;32338;50.430;6.806;2023-08-07T01:04:42;9.00;;;2.70;;
46613;SDS011;32338;50.430;6.806;2023-08-07T01:07:09;8.50;;;2.70;;
46613;SDS011;32338;50.430;6.806;2023-08-07T01:09:35;8.32;;;3.05;;
46613;SDS011;32338;50.430;6.806;2023-08-07T01:12:06;10.02;;;2.38;;
46613;SDS011;32338;50.430;6.806;2023-08-07T01:14:40;10.32;;;2.45;;
46613;SDS011;32338;50.430;6.806;2023-08-07T01:19:44;8.45;;;2.15;;
46613;SDS011;32338;50.430;6.806;2023-08-07T01:22:14;8.80;;;2.50;;
46613;SDS011;32338;50.430;6.806;2023-08-07T01:24:42;8.90;;;2.35;;
46613;SDS011;32338;50.430;6.806;2023-08-07T01:27:15;8.27;;;2.20;;
46613;SDS011;32338;50.430;6.806;2023-08-07T01:29:51;9.45;;;2.25;;
46613;SDS011;32338;50.430;6.806;2023-08-07T01:32:26;4.97;;;2.53;;
46613;SDS011;32338;50.430;6.806;2023-08-07T01:34:59;7.05;;;2.28;;
46613;SDS011;32338;50.430;6.806;2023-08-07T01:37:29;7.78;;;2.60;;
46613;SDS011;32338;50.430;6.806;2023-08-07T01:39:56;11.77;;;2.97;;
46613;SDS011;32338;50.430;6.806;2023-08-07T01:42:24;8.65;;;2.15;;
46613;SDS011;32338;50.430;6.806;2023-08-07T01:44:51;9.88;;;2.00;;
46613;SDS011;32338;50.430;6.806;2023-08-07T01:47:18;4.43;;;2.28;;
46613;SDS011;32338;50.430;6.806;2023-08-07T01:49:45;5.13;;;2.15;;
46613;SDS011;32338;50.430;6.806;2023-08-07T01:52:11;7.80;;;2.35;;
46613;SDS011;32338;50.430;6.806;2023-08-07T01:54:39;11.05;;;2.70;;
46613;SDS011;32338;50.430;6.806;2023-08-07T01:57:06;5.95;;;2.50;;
46613;SDS011;32338;50.430;6.806;2023-08-07T01:59:32;5.47;;;2.22;;
46613;SDS011;32338;50.430;6.806;2023-08-07T02:01:59;7.57;;;2.40;;
46613;SDS011;32338;50.430;6.806;2023-08-07T02:04:26;7.43;;;2.80;;
46613;SDS011;32338;50.430;6.806;2023-08-07T02:06:52;9.88;;;2.85;;
46613;SDS011;32338;50.430;6.806;2023-08-07T02:09:19;12.07;;;2.70;;
46613;SDS011;32338;50.430;6.806;2023-08-07T02:11:47;8.88;;;2.13;;
46613;SDS011;32338;50.430;6.806;2023-08-07T02:14:13;7.78;;;2.75;;
46613;SDS011;32338;50.430;6.806;2023-08-07T02:16:40;8.13;;;2.65;;
46613;SDS011;32338;50.430;6.806;2023-08-07T02:19:06;7.38;;;2.30;;
46613;SDS011;32338;50.430;6.806;2023-08-07T02:21:33;5.38;;;2.17;;
46613;SDS011;32338;50.430;6.806;2023-08-07T02:24:00;9.48;;;2.33;;
46613;SDS011;32338;50.430;6.806;2023-08-07T02:26:26;8.70;;;2.10;;
46613;SDS011;32338;50.430;6.806;2023-08-07T02:28:54;13.80;;;2.65;;
46613;SDS011;32338;50.430;6.806;2023-08-07T02:31:20;11.48;;;2.65;;
46613;SDS011;32338;50.430;6.806;2023-08-07T02:33:47;5.80;;;2.28;;
46613;SDS011;32338;50.430;6.806;2023-08-07T02:36:14;8.02;;;2.78;;
46613;SDS011;32338;50.430;6.806;2023-08-07T02:38:40;10.35;;;2.70;;
46613;SDS011;32338;50.430;6.806;2023-08-07T02:41:07;12.32;;;2.20;;
46613;SDS011;32338;50.430;6.806;2023-08-07T02:43:33;4.47;;;2.28;;
46613;SDS011;32338;50.430;6.806;2023-08-07T02:46:01;12.50;;;2.67;;
46613;SDS011;32338;50.430;6.806;2023-08-07T02:48:28;10.75;;;2.38;;
46613;SDS011;32338;50.430;6.806;2023-08-07T02:50:54;8.98;;;2.30;;
46613;SDS011;32338;50.430;6.806;2023-08-07T02:53:21;8.63;;;2.15;;
46613;SDS011;32338;50.430;6.806;2023-08-07T02:55:47;6.25;;;2.00;;
46613;SDS011;32338;50.430;6.806;2023-08-07T02:58:14;10.45;;;2.45;;
46613;SDS011;32338;50.430;6.806;2023-08-07T03:00:40;10.90;;;2.40;;
46613;SDS011;32338;50.430;6.806;2023-08-07T03:03:09;6.43;;;2.15;;
46613;SDS011;32338;50.430;6.806;2023-08-07T03:05:36;11.35;;;2.25;;
46613;SDS011;32338;50.430;6.806;2023-08-07T03:08:03;12.88;;;2.22;;
46613;SDS011;32338;50.430;6.806;2023-08-07T03:10:30;8.40;;;2.45;;
46613;SDS011;32338;50.430;6.806;2023-08-07T03:12:56;12.25;;;2.38;;
46613;SDS011;32338;50.430;6.806;2023-08-07T03:15:23;12.43;;;2.80;;
46613;SDS011;32338;50.430;6.806;2023-08-07T03:17:50;7.05;;;2.40;;
46613;SDS011;32338;50.430;6.806;2023-08-07T03:20:18;7.72;;;2.35;;
46613;SDS011;32338;50.430;6.806;2023-08-07T03:22:44;7.15;;;2.15;;
46613;SDS011;32338;50.430;6.806;2023-08-07T03:25:11;8.60;;;2.63;;
46613;SDS011;32338;50.430;6.806;2023-08-07T03:27:37;6.50;;;2.03;;
46613;SDS011;32338;50.430;6.806;2023-08-07T03:30:04;8.27;;;1.83;;
46613;SDS011;32338;50.430;6.806;2023-08-07T03:32:32;10.35;;;2.40;;
46613;SDS011;32338;50.430;6.806;2023-08-07T03:34:58;6.47;;;2.05;;
46613;SDS011;32338;50.430;6.806;2023-08-07T03:37:26;9.70;;;1.92;;
46613;SDS011;32338;50.430;6.806;2023-08-07T03:39:53;7.80;;;2.00;;
46613;SDS011;32338;50.430;6.806;2023-08-07T03:42:19;6.78;;;2.22;;
46613;SDS011;32338;50.430;6.806;2023-08-07T03:44:46;6.75;;;2.05;;
46613;SDS011;32338;50.430;6.806;2023-08-07T03:47:12;6.05;;;1.90;;
46613;SDS011;32338;50.430;6.806;2023-08-07T03:49:39;9.20;;;1.70;;
46613;SDS011;32338;50.430;6.806;2023-08-07T03:52:06;7.10;;;1.52;;
46613;SDS011;32338;50.430;6.806;2023-08-07T03:54:34;5.07;;;1.33;;
46613;SDS011;32338;50.430;6.806;2023-08-07T03:57:00;5.80;;;1.52;;
46613;SDS011;32338;50.430;6.806;2023-08-07T03:59:27;5.15;;;1.50;;
46613;SDS011;32338;50.430;6.806;2023-08-07T04:01:54;3.00;;;1.20;;
46613;SDS011;32338;50.430;6.806;2023-08-07T04:04:21;3.70;;;1.38;;
46613;SDS011;32338;50.430;6.806;2023-08-07T04:06:47;6.72;;;1.63;;
46613;SDS011;32338;50.430;6.806;2023-08-07T04:09:14;6.25;;;1.23;;
46613;SDS011;32338;50.430;6.806;2023-08-07T04:11:43;3.05;;;1.05;;
46613;SDS011;32338;50.430;6.806;2023-08-07T04:14:09;2.75;;;0.90;;
46613;SDS011;32338;50.430;6.806;2023-08-07T04:16:37;4.88;;;0.93;;
46613;SDS011;32338;50.430;6.806;2023-08-07T04:19:03;2.28;;;0.82;;
46613;SDS011;32338;50.430;6.806;2023-08-07T04:21:31;2.55;;;0.80;;
46613;SDS011;32338;50.430;6.806;2023-08-07T04:23:58;2.60;;;0.85;;
46613;SDS011;32338;50.430;6.806;2023-08-07T04:26:25;2.10;;;0.65;;
46613;SDS011;32338;50.430;6.806;2023-08-07T04:28:53;2.22;;;1.02;;
46613;SDS011;32338;50.430;6.806;2023-08-07T04:31:19;2.15;;;0.90;;
46613;SDS011;32338;50.430;6.806;2023-08-07T04:33:46;3.97;;;1.13;;
46613;SDS011;32338;50.430;6.806;2023-08-07T04:36:12;3.38;;;1.10;;
46613;SDS011;32338;50.430;6.806;2023-08-07T04:38:39;2.65;;;0.85;;
46613;SDS011;32338;50.430;6.806;2023-08-07T04:41:06;2.08;;;0.80;;
46613;SDS011;32338;50.430;6.806;2023-08-07T04:43:32;1.33;;;0.80;;
46613;SDS011;32338;50.430;6.806;2023-08-07T04:46:01;7.85;;;1.20;;
46613;SDS011;32338;50.430;6.806;2023-08-07T04:48:27;2.03;;;0.80;;
46613;SDS011;32338;50.430;6.806;2023-08-07T04:50:54;4.05;;;1.17;;
46613;SDS011;32338;50.430;6.806;2023-08-07T04:53:20;3.53;;;1.45;;
46613;SDS011;32338;50.430;6.806;2023-08-07T04:55:47;2.95;;;1.02;;
46613;SDS011;32338;50.430;6.806;2023-08-07T04:58:13;4.00;;;1.20;;
46613;SDS011;32338;50.430;6.806;2023-08-07T05:00:40;3.25;;;1.10;;
46613;SDS011;32338;50.430;6.806;2023-08-07T05:03:08;3.25;;;1.20;;
46613;SDS011;32338;50.430;6.806;2023-08-07T05:05:34;4.15;;;1.30;;
46613;SDS011;32338;50.430;6.806;2023-08-07T05:08:01;3.67;;;1.60;;
46613;SDS011;32338;50.430;6.806;2023-08-07T05:10:27;7.25;;;1.80;;
46613;SDS011;32338;50.430;6.806;2023-08-07T05:12:54;2.95;;;1.45;;
46613;SDS011;32338;50.430;6.806;2023-08-07T05:15:21;6.68;;;1.77;;
46613;SDS011;32338;50.430;6.806;2023-08-07T05:17:48;4.72;;;1.42;;
46613;SDS011;32338;50.430;6.806;2023-08-07T05:20:16;4.80;;;1.70;;
46613;SDS011;32338;50.430;6.806;2023-08-07T05:22:43;13.82;;;2.17;;
46613;SDS011;32338;50.430;6.806;2023-08-07T05:25:09;5.43;;;1.90;;
46613;SDS011;32338;50.430;6.806;2023-08-07T05:27:37;7.03;;;2.05;;
46613;SDS011;32338;50.430;6.806;2023-08-07T05:30:04;5.25;;;2.03;;
46613;SDS011;32338;50.430;6.806;2023-08-07T05:32:32;8.80;;;2.45;;
46613;SDS011;32338;50.430;6.806;2023-08-07T05:34:58;7.82;;;2.30;;
46613;SDS011;32338;50.430;6.806;2023-08-07T05:37:26;7.97;;;2.33;;
46613;SDS011;32338;50.430;6.806;2023-08-07T05:39:54;5.57;;;1.88;;
46613;SDS011;32338;50.430;6.806;2023-08-07T05:42:21;8.98;;;2.80;;
46613;SDS011;32338;50.430;6.806;2023-08-07T05:44:47;6.32;;;2.17;;
46613;SDS011;32338;50.430;6.806;2023-08-07T05:47:14;5.97;;;2.00;;
46613;SDS011;32338;50.430;6.806;2023-08-07T05:49:40;5.45;;;2.00;;
46613;SDS011;32338;50.430;6.806;2023-08-07T05:52:07;5.45;;;2.05;;
46613;SDS011;32338;50.430;6.806;2023-08-07T05:54:35;6.22;;;1.90;;
46613;SDS011;32338;50.430;6.806;2023-08-07T05:57:02;5.90;;;2.00;;
46613;SDS011;32338;50.430;6.806;2023-08-07T05:59:29;8.38;;;1.80;;
46613;SDS011;32338;50.430;6.806;2023-08-07T06:01:56;12.10;;;2.10;;
46613;SDS011;32338;50.430;6.806;2023-08-07T06:04:23;8.23;;;2.47;;
46613;SDS011;32338;50.430;6.806;2023-08-07T06:06:49;8.05;;;1.65;;
46613;SDS011;32338;50.430;6.806;2023-08-07T06:09:16;6.47;;;1.88;;
46613;SDS011;32338;50.430;6.806;2023-08-07T06:11:44;6.85;;;1.85;;
46613;SDS011;32338;50.430;6.806;2023-08-07T06:14:10;7.57;;;1.80;;
46613;SDS011;32338;50.430;6.806;2023-08-07T06:16:37;5.45;;;1.70;;
46613;SDS011;32338;50.430;6.806;2023-08-07T06:19:03;4.50;;;1.83;;
46613;SDS011;32338;50.430;6.806;2023-08-07T06:21:30;10.57;;;1.92;;
46613;SDS011;32338;50.430;6.806;2023-08-07T06:23:56;11.15;;;1.88;;
46613;SDS011;32338;50.430;6.806;2023-08-07T06:26:23;10.52;;;2.30;;
46613;SDS011;32338;50.430;6.806;2023-08-07T06:28:51;8.02;;;1.95;;
46613;SDS011;32338;50.430;6.806;2023-08-07T06:31:17;11.20;;;2.00;;
46613;SDS011;32338;50.430;6.806;2023-08-07T06:33:44;5.35;;;2.10;;
46613;SDS011;32338;50.430;6.806;2023-08-07T06:36:11;7.68;;;1.70;;
46613;SDS011;32338;50.430;6.806;2023-08-07T06:38:37;6.28;;;1.80;;
46613;SDS011;32338;50.430;6.806;2023-08-07T06:41:04;7.50;;;2.30;;
46613;SDS011;32338;50.430;6.806;2023-08-07T06:43:31;6.90;;;2.58;;
46613;SDS011;32338;50.430;6.806;2023-08-07T06:45:58;4.95;;;1.60;;
46613;SDS011;32338;50.430;6.806;2023-08-07T06:48:25;10.00;;;2.35;;
46613;SDS011;32338;50.430;6.806;2023-08-07T06:50:52;4.90;;;2.00;;
46613;SDS011;32338;50.430;6.806;2023-08-07T06:53:19;7.50;;;2.10;;
46613;SDS011;32338;50.430;6.806;2023-08-07T06:55:45;9.05;;;1.92;;
46613;SDS011;32338;50.430;6.806;2023-08-07T06:58:12;7.65;;;1.83;;
46613;SDS011;32338;50.430;6.806;2023-08-07T07:00:39;8.20;;;2.22;;
46613;SDS011;32338;50.430;6.806;2023-08-07T07:03:07;7.15;;;2.20;;
46613;SDS011;32338;50.430;6.806;2023-08-07T07:05:35;9.55;;;2.25;;
46613;SDS011;32338;50.430;6.806;2023-08-07T07:08:01;4.85;;;1.70;;
46613;SDS011;32338;50.430;6.806;2023-08-07T07:10:28;7.13;;;1.63;;
46613;SDS011;32338;50.430;6.806;2023-08-07T07:12:55;4.18;;;1.55;;
46613;SDS011;32338;50.430;6.806;2023-08-07T07:15:21;5.68;;;1.67;;
46613;SDS011;32338;50.430;6.806;2023-08-07T07:17:48;5.97;;;1.80;;
46613;SDS011;32338;50.430;6.806;2023-08-07T07:20:16;5.50;;;1.67;;
46613;SDS011;32338;50.430;6.806;2023-08-07T07:22:42;4.35;;;1.40;;
46613;SDS011;32338;50.430;6.806;2023-08-07T07:25:09;3.38;;;1.42;;
46613;SDS011;32338;50.430;6.806;2023-08-07T07:27:36;6.22;;;1.50;;
46613;SDS011;32338;50.430;6.806;2023-08-07T07:30:02;3.95;;;1.08;;
46613;SDS011;32338;50.430;6.806;2023-08-07T07:32:30;3.10;;;1.30;;
46613;SDS011;32338;50.430;6.806;2023-08-07T07:34:56;2.97;;;1.00;;
46613;SDS011;32338;50.430;6.806;2023-08-07T07:37:24;7.70;;;1.50;;
46613;SDS011;32338;50.430;6.806;2023-08-07T07:39:51;4.45;;;1.20;;
46613;SDS011;32338;50.430;6.806;2023-08-07T07:42:17;3.22;;;1.10;;
46613;SDS011;32338;50.430;6.806;2023-08-07T07:44:44;2.75;;;1.08;;
46613;SDS011;32338;50.430;6.806;2023-08-07T07:47:10;3.38;;;0.90;;
46613;SDS011;32338;50.430;6.806;2023-08-07T07:49:37;5.70;;;1.30;;
46613;SDS011;32338;50.430;6.806;2023-08-07T07:52:03;2.33;;;1.27;;
46613;SDS011;32338;50.430;6.806;2023-08-07T07:54:32;1.52;;;0.88;;
46613;SDS011;32338;50.430;6.806;2023-08-07T07:56:59;2.15;;;1.10;;
46613;SDS011;32338;50.430;6.806;2023-08-07T07:59:25;5.82;;;1.00;;
46613;SDS011;32338;50.430;6.806;2023-08-07T08:01:53;2.42;;;1.05;;
46613;SDS011;32338;50.430;6.806;2023-08-07T08:04:19;7.22;;;1.00;;
46613;SDS011;32338;50.430;6.806;2023-08-07T08:06:46;2.65;;;0.90;;
46613;SDS011;32338;50.430;6.806;2023-08-07T08:09:13;3.80;;;1.00;;
46613;SDS011;32338;50.430;6.806;2023-08-07T08:11:41;3.97;;;1.10;;
46613;SDS011;32338;50.430;6.806;2023-08-07T08:14:08;5.18;;;1.13;;
46613;SDS011;32338;50.430;6.806;2023-08-07T08:16:35;4.38;;;1.33;;
46613;SDS011;32338;50.430;6.806;2023-08-07T08:19:01;5.82;;;1.27;;
46613;SDS011;32338;50.430;6.806;2023-08-07T08:21:28;5.93;;;1.35;;
46613;SDS011;32338;50.430;6.806;2023-08-07T08:23:55;4.32;;;1.40;;
46613;SDS011;32338;50.430;6.806;2023-08-07T08:26:22;3.53;;;1.63;;
46613;SDS011;32338;50.430;6.806;2023-08-07T08:28:50;3.80;;;1.50;;
46613;SDS011;32338;50.430;6.806;2023-08-07T08:31:16;1.70;;;0.95;;
46613;SDS011;32338;50.430;6.806;2023-08-07T08:33:43;3.28;;;1.73;;
46613;SDS011;32338;50.430;6.806;2023-08-07T08:36:09;2.60;;;1.30;;
46613;SDS011;32338;50.430;6.806;2023-08-07T08:38:36;9.10;;;1.58;;
46613;SDS011;32338;50.430;6.806;2023-08-07T08:41:03;4.60;;;1.63;;
46613;SDS011;32338;50.430;6.806;2023-08-07T08:43:34;2.63;;;1.48;;
46613;SDS011;32338;50.430;6.806;2023-08-07T08:46:02;7.25;;;1.85;;
46613;SDS011;32338;50.430;6.806;2023-08-07T08:48:30;4.07;;;1.42;;
46613;SDS011;32338;50.430;6.806;2023-08-07T08:51:00;7.25;;;1.95;;
46613;SDS011;32338;50.430;6.806;2023-08-07T08:53:28;6.70;;;1.40;;
46613;SDS011;32338;50.430;6.806;2023-08-07T08:55:55;7.32;;;1.95;;
46613;SDS011;32338;50.430;6.806;2023-08-07T08:58:22;6.15;;;1.70;;
46613;SDS011;32338;50.430;6.806;2023-08-07T09:00:49;7.13;;;1.38;;
46613;SDS011;32338;50.430;6.806;2023-08-07T09:03:18;6.10;;;2.00;;
46613;SDS011;32338;50.430;6.806;2023-08-07T09:05:45;5.78;;;1.92;;
46613;SDS011;32338;50.430;6.806;2023-08-07T09:08:13;5.30;;;2.00;;
46613;SDS011;32338;50.430;6.806;2023-08-07T09:10:40;6.72;;;1.95;;
46613;SDS011;32338;50.430;6.806;2023-08-07T09:13:08;6.35;;;1.58;;
46613;SDS011;32338;50.430;6.806;2023-08-07T09:15:39;4.00;;;1.75;;
46613;SDS011;32338;50.430;6.806;2023-08-07T09:18:09;7.10;;;1.40;;
46613;SDS011;32338;50.430;6.806;2023-08-07T09:20:38;7.93;;;2.40;;
46613;SDS011;32338;50.430;6.806;2023-08-07T09:23:05;4.78;;;1.95;;
46613;SDS011;32338;50.430;6.806;2023-08-07T09:25:32;3.83;;;1.30;;
46613;SDS011;32338;50.430;6.806;2023-08-07T09:28:01;6.32;;;1.70;;
46613;SDS011;32338;50.430;6.806;2023-08-07T09:30:29;9.00;;;1.95;;
46613;SDS011;32338;50.430;6.806;2023-08-07T09:32:56;5.38;;;1.73;;
46613;SDS011;32338;50.430;6.806;2023-08-07T09:35:23;5.82;;;1.75;;
46613;SDS011;32338;50.430;6.806;2023-08-07T09:37:51;8.85;;;1.60;;
46613;SDS011;32338;50.430;6.806;2023-08-07T09:40:18;7.15;;;1.73;;
46613;SDS011;32338;50.430;6.806;2023-08-07T09:42:45;6.32;;;1.70;;
46613;SDS011;32338;50.430;6.806;2023-08-07T09:45:19;9.85;;;1.70;;
46613;SDS011;32338;50.430;6.806;2023-08-07T09:47:46;6.22;;;1.85;;
46613;SDS011;32338;50.430;6.806;2023-08-07T09:50:22;5.07;;;1.50;;
46613;SDS011;32338;50.430;6.806;2023-08-07T09:52:49;5.70;;;1.70;;
46613;SDS011;32338;50.430;6.806;2023-08-07T09:55:17;8.15;;;1.80;;
46613;SDS011;32338;50.430;6.806;2023-08-07T09:57:43;8.13;;;1.58;;
46613;SDS011;32338;50.430;6.806;2023-08-07T10:00:11;7.15;;;2.10;;
46613;SDS011;32338;50.430;6.806;2023-08-07T10:02:40;6.22;;;1.40;;
46613;SDS011;32338;50.430;6.806;2023-08-07T10:05:07;5.93;;;1.63;;
46613;SDS011;32338;50.430;6.806;2023-08-07T10:07:35;6.18;;;1.50;;
46613;SDS011;32338;50.430;6.806;2023-08-07T10:10:03;7.10;;;1.55;;
46613;SDS011;32338;50.430;6.806;2023-08-07T10:12:31;3.95;;;1.48;;
46613;SDS011;32338;50.430;6.806;2023-08-07T10:14:58;5.25;;;1.40;;
46613;SDS011;32338;50.430;6.806;2023-08-07T10:17:25;5.65;;;2.08;;
46613;SDS011;32338;50.430;6.806;2023-08-07T10:19:53;7.05;;;1.60;;
46613;SDS011;32338;50.430;6.806;2023-08-07T10:22:20;9.40;;;1.55;;
46613;SDS011;32338;50.430;6.806;2023-08-07T10:24:50;2.75;;;1.27;;
46613;SDS011;32338;50.430;6.806;2023-08-07T10:27:18;4.03;;;1.70;;
46613;SDS011;32338;50.430;6.806;2023-08-07T10:29:49;4.80;;;1.50;;
46613;SDS011;32338;50.430;6.806;2023-08-07T10:32:18;6.63;;;1.50;;
46613;SDS011;32338;50.430;6.806;2023-08-07T10:34:46;4.03;;;1.80;;
46613;SDS011;32338;50.430;6.806;2023-08-07T10:37:21;3.10;;;1.38;;
46613;SDS011;32338;50.430;6.806;2023-08-07T10:40:01;3.00;;;1.13;;
46613;SDS011;32338;50.430;6.806;2023-08-07T10:42:32;3.05;;;1.60;;
46613;SDS011;32338;50.430;6.806;2023-08-07T10:47:52;2.05;;;1.42;;
46613;SDS011;32338;50.430;6.806;2023-08-07T10:50:27;6.78;;;1.42;;
46613;SDS011;32338;50.430;6.806;2023-08-07T10:52:54;6.75;;;1.30;;
46613;SDS011;32338;50.430;6.806;2023-08-07T10:55:21;3.75;;;1.40;;
46613;SDS011;32338;50.430;6.806;2023-08-07T10:57:48;4.72;;;1.45;;
46613;SDS011;32338;50.430;6.806;2023-08-07T11:00:15;7.05;;;1.88;;
46613;SDS011;32338;50.430;6.806;2023-08-07T11:02:44;7.70;;;1.65;;
46613;SDS011;32338;50.430;6.806;2023-08-07T11:05:15;3.00;;;1.48;;
46613;SDS011;32338;50.430;6.806;2023-08-07T11:07:41;4.97;;;1.45;;
46613;SDS011;32338;50.430;6.806;2023-08-07T11:10:09;4.57;;;1.63;;
46613;SDS011;32338;50.430;6.806;2023-08-07T11:12:40;2.55;;;1.30;;
46613;SDS011;32338;50.430;6.806;2023-08-07T11:15:07;7.28;;;1.83;;
46613;SDS011;32338;50.430;6.806;2023-08-07T11:17:38;3.92;;;1.42;;
46613;SDS011;32338;50.430;6.806;2023-08-07T11:20:08;6.15;;;1.58;;
46613;SDS011;32338;50.430;6.806;2023-08-07T11:22:37;4.20;;;1.50;;
46613;SDS011;32338;50.430;6.806;2023-08-07T11:25:04;4.90;;;1.55;;
46613;SDS011;32338;50.430;6.806;2023-08-07T11:27:36;4.38;;;1.88;;
46613;SDS011;32338;50.430;6.806;2023-08-07T11:30:03;5.82;;;1.90;;
46613;SDS011;32338;50.430;6.806;2023-08-07T11:32:30;4.72;;;1.77;;
46613;SDS011;32338;50.430;6.806;2023-08-07T11:34:57;8.30;;;1.92;;
46613;SDS011;32338;50.430;6.806;2023-08-07T11:37:25;3.85;;;1.50;;
46613;SDS011;32338;50.430;6.806;2023-08-07T11:39:51;3.40;;;1.73;;
46613;SDS011;32338;50.430;6.806;2023-08-07T11:42:18;2.80;;;1.42;;
46613;SDS011;32338;50.430;6.806;2023-08-07T11:44:47;4.45;;;1.50;;
46613;SDS011;32338;50.430;6.806;2023-08-07T11:47:14;2.50;;;1.45;;
46613;SDS011;32338;50.430;6.806;2023-08-07T11:49:41;5.50;;;1.92;;
46613;SDS011;32338;50.430;6.806;2023-08-07T11:52:08;6.43;;;1.63;;
46613;SDS011;32338;50.430;6.806;2023-08-07T11:54:36;2.72;;;1.80;;
46613;SDS011;32338;50.430;6.806;2023-08-07T11:57:02;4.97;;;1.88;;
46613;SDS011;32338;50.430;6.806;2023-08-07T11:59:30;5.28;;;1.45;;
46613;SDS011;32338;50.430;6.806;2023-08-07T12:01:56;3.47;;;1.40;;
46613;SDS011;32338;50.430;6.806;2023-08-07T12:04:23;3.45;;;1.80;;
46613;SDS011;32338;50.430;6.806;2023-08-07T12:06:53;6.65;;;1.60;;
46613;SDS011;32338;50.430;6.806;2023-08-07T12:09:20;5.28;;;1.77;;
46613;SDS011;32338;50.430;6.806;2023-08-07T12:11:48;5.60;;;1.90;;
46613;SDS011;32338;50.430;6.806;2023-08-07T12:14:15;5.97;;;1.60;;
46613;SDS011;32338;50.430;6.806;2023-08-07T12:16:43;5.03;;;1.60;;
46613;SDS011;32338;50.430;6.806;2023-08-07T12:19:10;2.70;;;1.50;;
46613;SDS011;32338;50.430;6.806;2023-08-07T12:21:38;4.57;;;1.73;;
46613;SDS011;32338;50.430;6.806;2023-08-07T12:24:04;2.70;;;1.58;;
46613;SDS011;32338;50.430;6.806;2023-08-07T12:26:33;2.75;;;1.45;;
46613;SDS011;32338;50.430;6.806;2023-08-07T12:29:01;3.33;;;1.40;;
46613;SDS011;32338;50.430;6.806;2023-08-07T12:31:27;3.53;;;1.58;;
46613;SDS011;32338;50.430;6.806;2023-08-07T12:33:54;7.57;;;1.90;;
46613;SDS011;32338;50.430;6.806;2023-08-07T12:36:20;3.60;;;1.52;;
46613;SDS011;32338;50.430;6.806;2023-08-07T12:38:47;4.28;;;1.60;;
46613;SDS011;32338;50.430;6.806;2023-08-07T12:41:14;3.05;;;1.40;;
46613;SDS011;32338;50.430;6.806;2023-08-07T12:43:41;7.97;;;1.92;;
46613;SDS011;32338;50.430;6.806;2023-08-07T12:46:09;6.50;;;1.33;;
46613;SDS011;32338;50.430;6.806;2023-08-07T12:48:35;4.68;;;1.65;;
46613;SDS011;32338;50.430;6.806;2023-08-07T12:51:02;9.80;;;1.73;;
46613;SDS011;32338;50.430;6.806;2023-08-07T12:53:28;2.42;;;1.80;;
46613;SDS011;32338;50.430;6.806;2023-08-07T12:55:56;6.25;;;1.70;;
46613;SDS011;32338;50.430;6.806;2023-08-07T12:58:23;3.50;;;1.60;;
46613;SDS011;32338;50.430;6.806;2023-08-07T13:00:51;4.93;;;1.40;;
46613;SDS011;32338;50.430;6.806;2023-08-07T13:03:19;6.68;;;1.60;;
46613;SDS011;32338;50.430;6.806;2023-08-07T13:05:45;2.28;;;1.30;;
46613;SDS011;32338;50.430;6.806;2023-08-07T13:08:12;6.60;;;1.70;;
46613;SDS011;32338;50.430;6.806;2023-08-07T13:10:38;2.95;;;1.65;;
46613;SDS011;32338;50.430;6.806;2023-08-07T13:13:05;1.70;;;1.38;;
46613;SDS011;32338;50.430;6.806;2023-08-07T13:15:32;4.40;;;1.55;;
46613;SDS011;32338;50.430;6.806;2023-08-07T13:17:58;2.17;;;1.30;;
46613;SDS011;32338;50.430;6.806;2023-08-07T13:20:27;4.35;;;1.20;;
46613;SDS011;32338;50.430;6.806;2023-08-07T13:22:58;3.53;;;1.17;;
46613;SDS011;32338;50.430;6.806;2023-08-07T13:25:25;4.00;;;1.20;;
46613;SDS011;32338;50.430;6.806;2023-08-07T13:27:51;3.25;;;1.05;;
46613;SDS011;32338;50.430;6.806;2023-08-07T13:30:18;3.67;;;1.33;;
46613;SDS011;32338;50.430;6.806;2023-08-07T13:32:44;2.90;;;1.20;;
46613;SDS011;32338;50.430;6.806;2023-08-07T13:35:11;3.95;;;1.20;;
46613;SDS011;32338;50.430;6.806;2023-08-07T13:37:39;5.40;;;1.45;;
46613;SDS011;32338;50.430;6.806;2023-08-07T13:40:06;2.33;;;1.17;;
46613;SDS011;32338;50.430;6.806;2023-08-07T13:42:34;2.30;;;1.02;;
46613;SDS011;32338;50.430;6.806;2023-08-07T13:45:03;2.15;;;1.13;;
46613;SDS011;32338;50.430;6.806;2023-08-07T13:47:31;2.45;;;0.98;;
46613;SDS011;32338;50.430;6.806;2023-08-07T13:49:57;5.38;;;1.27;;
46613;SDS011;32338;50.430;6.806;2023-08-07T13:52:24;2.08;;;1.38;;
46613;SDS011;32338;50.430;6.806;2023-08-07T13:54:51;2.33;;;1.20;;
46613;SDS011;32338;50.430;6.806;2023-08-07T13:57:18;3.15;;;1.23;;
46613;SDS011;32338;50.430;6.806;2023-08-07T13:59:45;4.15;;;1.20;;
46613;SDS011;32338;50.430;6.806;2023-08-07T14:02:11;3.20;;;1.25;;
46613;SDS011;32338;50.430;6.806;2023-08-07T14:04:38;3.40;;;1.13;;
46613;SDS011;32338;50.430;6.806;2023-08-07T14:07:05;1.60;;;1.00;;
46613;SDS011;32338;50.430;6.806;2023-08-07T14:09:32;1.20;;;1.00;;
46613;SDS011;32338;50.430;6.806;2023-08-07T14:12:00;1.75;;;0.95;;
46613;SDS011;32338;50.430;6.806;2023-08-07T14:14:26;3.50;;;1.00;;
46613;SDS011;32338;50.430;6.806;2023-08-07T14:16:53;4.72;;;1.30;;
46613;SDS011;32338;50.430;6.806;2023-08-07T14:19:22;4.72;;;0.85;;
46613;SDS011;32338;50.430;6.806;2023-08-07T14:21:49;4.38;;;1.13;;
46613;SDS011;32338;50.430;6.806;2023-08-07T14:24:15;3.80;;;1.08;;
46613;SDS011;32338;50.430;6.806;2023-08-07T14:26:42;1.95;;;1.15;;
46613;SDS011;32338;50.430;6.806;2023-08-07T14:29:10;1.92;;;0.98;;
46613;SDS011;32338;50.430;6.806;2023-08-07T14:31:38;1.85;;;1.10;;
46613;SDS011;32338;50.430;6.806;2023-08-07T14:34:05;3.95;;;1.10;;
46613;SDS011;32338;50.430;6.806;2023-08-07T14:36:32;6.82;;;0.95;;
46613;SDS011;32338;50.430;6.806;2023-08-07T14:38:59;1.50;;;1.08;;
46613;SDS011;32338;50.430;6.806;2023-08-07T14:41:27;4.93;;;1.10;;
46613;SDS011;32338;50.430;6.806;2023-08-07T14:43:53;1.50;;;1.10;;
46613;SDS011;32338;50.430;6.806;2023-08-07T14:46:21;1.67;;;0.98;;
46613;SDS011;32338;50.430;6.806;2023-08-07T14:48:48;4.03;;;1.35;;
46613;SDS011;32338;50.430;6.806;2023-08-07T14:51:15;1.20;;;0.95;;